Terminal Aerodrome Forecast
Issued by NWS

Home | Current Version | Previous Version | Graphics & Text | Print | Product List | Glossary On
Versions: 1 2 3 4 5 6 7 8 9 10 11 12 13 14 15
981
FTUS43 KTOP 072323
TAFFOE
TAF
KFOE 072323Z 0800/0824 31017G24KT P6SM BKN060
     FM080600 32020G28KT P6SM SCT020 BKN035
     FM081500 32024G35KT P6SM SCT025 BKN050
     FM081800 32028G39KT P6SM SCT050=

USA.gov is the U.S. government's official web portal to all federal, state and local government web resources and services.